sensor_id;sensor_type;location;lat;lon;timestamp;P1;durP1;ratioP1;P2;durP2;ratioP2
6127;SDS011;7073;42.672;23.256;2022-07-29T00:00:05;12.40;;;9.70;;
6127;SDS011;7073;42.672;23.256;2022-07-29T00:02:34;13.50;;;9.50;;
6127;SDS011;7073;42.672;23.256;2022-07-29T00:05:00;19.13;;;9.67;;
6127;SDS011;7073;42.672;23.256;2022-07-29T00:07:27;14.50;;;11.00;;
6127;SDS011;7073;42.672;23.256;2022-07-29T00:09:55;12.97;;;10.33;;
6127;SDS011;7073;42.672;23.256;2022-07-29T00:12:23;13.50;;;10.23;;
6127;SDS011;7073;42.672;23.256;2022-07-29T00:14:51;13.50;;;11.20;;
6127;SDS011;7073;42.672;23.256;2022-07-29T00:17:17;11.70;;;10.47;;
6127;SDS011;7073;42.672;23.256;2022-07-29T00:19:44;13.17;;;10.73;;
6127;SDS011;7073;42.672;23.256;2022-07-29T00:22:11;12.93;;;10.33;;
6127;SDS011;7073;42.672;23.256;2022-07-29T00:24:38;13.03;;;9.93;;
6127;SDS011;7073;42.672;23.256;2022-07-29T00:27:06;11.30;;;9.70;;
6127;SDS011;7073;42.672;23.256;2022-07-29T00:29:33;12.80;;;10.10;;
6127;SDS011;7073;42.672;23.256;2022-07-29T00:32:00;14.53;;;10.93;;
6127;SDS011;7073;42.672;23.256;2022-07-29T00:34:27;14.37;;;10.20;;
6127;SDS011;7073;42.672;23.256;2022-07-29T00:37:11;11.33;;;9.30;;
6127;SDS011;7073;42.672;23.256;2022-07-29T00:39:38;9.70;;;8.73;;
6127;SDS011;7073;42.672;23.256;2022-07-29T00:42:06;13.37;;;9.70;;
6127;SDS011;7073;42.672;23.256;2022-07-29T00:44:36;12.37;;;9.57;;
6127;SDS011;7073;42.672;23.256;2022-07-29T00:47:03;12.73;;;8.90;;
6127;SDS011;7073;42.672;23.256;2022-07-29T00:49:30;11.87;;;8.90;;
6127;SDS011;7073;42.672;23.256;2022-07-29T00:51:57;12.63;;;9.40;;
6127;SDS011;7073;42.672;23.256;2022-07-29T00:54:24;13.50;;;8.80;;
6127;SDS011;7073;42.672;23.256;2022-07-29T00:56:51;12.33;;;10.90;;
6127;SDS011;7073;42.672;23.256;2022-07-29T00:59:20;14.27;;;11.40;;
6127;SDS011;7073;42.672;23.256;2022-07-29T01:01:47;14.97;;;12.57;;
6127;SDS011;7073;42.672;23.256;2022-07-29T01:04:14;18.30;;;12.13;;
6127;SDS011;7073;42.672;23.256;2022-07-29T01:06:41;12.73;;;11.43;;
6127;SDS011;7073;42.672;23.256;2022-07-29T01:09:09;13.87;;;10.87;;
6127;SDS011;7073;42.672;23.256;2022-07-29T01:11:37;16.60;;;11.10;;
6127;SDS011;7073;42.672;23.256;2022-07-29T01:14:04;13.97;;;11.07;;
6127;SDS011;7073;42.672;23.256;2022-07-29T01:16:35;15.00;;;11.80;;
6127;SDS011;7073;42.672;23.256;2022-07-29T01:19:13;15.13;;;11.43;;
6127;SDS011;7073;42.672;23.256;2022-07-29T01:21:53;15.60;;;12.03;;
6127;SDS011;7073;42.672;23.256;2022-07-29T01:24:29;14.80;;;11.03;;
6127;SDS011;7073;42.672;23.256;2022-07-29T01:27:09;20.73;;;13.20;;
6127;SDS011;7073;42.672;23.256;2022-07-29T01:29:54;14.70;;;12.57;;
6127;SDS011;7073;42.672;23.256;2022-07-29T01:32:24;17.03;;;12.70;;
6127;SDS011;7073;42.672;23.256;2022-07-29T01:34:55;15.37;;;11.53;;
6127;SDS011;7073;42.672;23.256;2022-07-29T01:37:27;14.70;;;12.33;;
6127;SDS011;7073;42.672;23.256;2022-07-29T01:39:59;13.27;;;11.40;;
6127;SDS011;7073;42.672;23.256;2022-07-29T01:42:30;15.60;;;11.63;;
6127;SDS011;7073;42.672;23.256;2022-07-29T01:45:07;17.30;;;11.40;;
6127;SDS011;7073;42.672;23.256;2022-07-29T01:47:38;17.40;;;11.70;;
6127;SDS011;7073;42.672;23.256;2022-07-29T01:50:11;16.17;;;11.37;;
6127;SDS011;7073;42.672;23.256;2022-07-29T01:52:42;17.93;;;11.20;;
6127;SDS011;7073;42.672;23.256;2022-07-29T01:55:13;15.60;;;11.50;;
6127;SDS011;7073;42.672;23.256;2022-07-29T01:57:43;19.07;;;11.90;;
6127;SDS011;7073;42.672;23.256;2022-07-29T02:00:14;16.13;;;11.50;;
6127;SDS011;7073;42.672;23.256;2022-07-29T02:02:43;20.30;;;11.40;;
6127;SDS011;7073;42.672;23.256;2022-07-29T02:05:14;18.37;;;11.50;;
6127;SDS011;7073;42.672;23.256;2022-07-29T02:07:43;15.90;;;11.20;;
6127;SDS011;7073;42.672;23.256;2022-07-29T02:10:12;14.53;;;10.97;;
6127;SDS011;7073;42.672;23.256;2022-07-29T02:12:40;16.23;;;10.07;;
6127;SDS011;7073;42.672;23.256;2022-07-29T02:15:09;15.40;;;10.50;;
6127;SDS011;7073;42.672;23.256;2022-07-29T02:17:41;15.03;;;11.03;;
6127;SDS011;7073;42.672;23.256;2022-07-29T02:20:10;22.60;;;11.50;;
6127;SDS011;7073;42.672;23.256;2022-07-29T02:22:39;14.13;;;10.70;;
6127;SDS011;7073;42.672;23.256;2022-07-29T02:25:07;17.27;;;11.00;;
6127;SDS011;7073;42.672;23.256;2022-07-29T02:27:36;15.47;;;11.17;;
6127;SDS011;7073;42.672;23.256;2022-07-29T02:30:06;19.60;;;11.47;;
6127;SDS011;7073;42.672;23.256;2022-07-29T02:32:35;17.93;;;11.70;;
6127;SDS011;7073;42.672;23.256;2022-07-29T02:35:07;12.83;;;11.40;;
6127;SDS011;7073;42.672;23.256;2022-07-29T02:37:35;16.00;;;11.93;;
6127;SDS011;7073;42.672;23.256;2022-07-29T02:40:03;15.00;;;11.30;;
6127;SDS011;7073;42.672;23.256;2022-07-29T02:42:32;16.33;;;11.43;;
6127;SDS011;7073;42.672;23.256;2022-07-29T02:44:59;17.47;;;12.10;;
6127;SDS011;7073;42.672;23.256;2022-07-29T02:47:27;16.03;;;11.70;;
6127;SDS011;7073;42.672;23.256;2022-07-29T02:50:02;14.90;;;11.50;;
6127;SDS011;7073;42.672;23.256;2022-07-29T02:52:37;16.03;;;11.87;;
6127;SDS011;7073;42.672;23.256;2022-07-29T02:55:10;16.37;;;11.47;;
6127;SDS011;7073;42.672;23.256;2022-07-29T02:57:44;18.80;;;11.40;;
6127;SDS011;7073;42.672;23.256;2022-07-29T03:00:14;17.47;;;12.13;;
6127;SDS011;7073;42.672;23.256;2022-07-29T03:02:43;18.00;;;12.77;;
6127;SDS011;7073;42.672;23.256;2022-07-29T03:05:13;15.97;;;12.83;;
6127;SDS011;7073;42.672;23.256;2022-07-29T03:07:45;14.77;;;11.40;;
6127;SDS011;7073;42.672;23.256;2022-07-29T03:10:15;15.33;;;12.00;;
6127;SDS011;7073;42.672;23.256;2022-07-29T03:12:42;15.23;;;10.47;;
6127;SDS011;7073;42.672;23.256;2022-07-29T03:15:10;18.00;;;12.37;;
6127;SDS011;7073;42.672;23.256;2022-07-29T03:17:38;16.90;;;12.43;;
6127;SDS011;7073;42.672;23.256;2022-07-29T03:20:06;17.03;;;11.57;;
6127;SDS011;7073;42.672;23.256;2022-07-29T03:22:37;14.43;;;11.73;;
6127;SDS011;7073;42.672;23.256;2022-07-29T03:25:10;16.67;;;12.00;;
6127;SDS011;7073;42.672;23.256;2022-07-29T03:27:37;17.03;;;12.07;;
6127;SDS011;7073;42.672;23.256;2022-07-29T03:30:04;15.73;;;11.50;;
6127;SDS011;7073;42.672;23.256;2022-07-29T03:32:32;15.53;;;11.60;;
6127;SDS011;7073;42.672;23.256;2022-07-29T03:34:59;19.00;;;12.17;;
6127;SDS011;7073;42.672;23.256;2022-07-29T03:37:26;26.37;;;12.80;;
6127;SDS011;7073;42.672;23.256;2022-07-29T03:39:54;24.07;;;13.03;;
6127;SDS011;7073;42.672;23.256;2022-07-29T03:42:24;17.40;;;12.23;;
6127;SDS011;7073;42.672;23.256;2022-07-29T03:44:53;17.23;;;13.70;;
6127;SDS011;7073;42.672;23.256;2022-07-29T03:47:22;18.10;;;13.60;;
6127;SDS011;7073;42.672;23.256;2022-07-29T03:49:52;19.20;;;12.70;;
6127;SDS011;7073;42.672;23.256;2022-07-29T03:52:23;22.30;;;14.70;;
6127;SDS011;7073;42.672;23.256;2022-07-29T03:54:49;19.97;;;13.50;;
6127;SDS011;7073;42.672;23.256;2022-07-29T03:57:16;16.90;;;13.63;;
6127;SDS011;7073;42.672;23.256;2022-07-29T03:59:48;20.20;;;13.60;;
6127;SDS011;7073;42.672;23.256;2022-07-29T04:02:15;18.97;;;13.13;;
6127;SDS011;7073;42.672;23.256;2022-07-29T04:04:42;16.90;;;12.40;;
6127;SDS011;7073;42.672;23.256;2022-07-29T04:07:11;18.97;;;13.70;;
6127;SDS011;7073;42.672;23.256;2022-07-29T04:09:38;17.97;;;13.20;;
6127;SDS011;7073;42.672;23.256;2022-07-29T04:12:05;21.30;;;13.87;;
6127;SDS011;7073;42.672;23.256;2022-07-29T04:14:33;21.73;;;13.57;;
6127;SDS011;7073;42.672;23.256;2022-07-29T04:17:02;21.50;;;14.50;;
6127;SDS011;7073;42.672;23.256;2022-07-29T04:19:30;18.80;;;14.33;;
6127;SDS011;7073;42.672;23.256;2022-07-29T04:21:58;22.97;;;14.00;;
6127;SDS011;7073;42.672;23.256;2022-07-29T04:24:26;19.50;;;14.20;;
6127;SDS011;7073;42.672;23.256;2022-07-29T04:26:53;33.30;;;17.10;;
6127;SDS011;7073;42.672;23.256;2022-07-29T04:29:20;25.03;;;15.60;;
6127;SDS011;7073;42.672;23.256;2022-07-29T04:31:47;21.13;;;16.40;;
6127;SDS011;7073;42.672;23.256;2022-07-29T04:34:15;17.17;;;14.47;;
6127;SDS011;7073;42.672;23.256;2022-07-29T04:36:42;19.07;;;15.13;;
6127;SDS011;7073;42.672;23.256;2022-07-29T04:39:09;17.80;;;15.20;;
6127;SDS011;7073;42.672;23.256;2022-07-29T04:41:36;22.13;;;15.67;;
6127;SDS011;7073;42.672;23.256;2022-07-29T04:44:03;20.10;;;16.20;;
6127;SDS011;7073;42.672;23.256;2022-07-29T04:46:31;20.53;;;15.60;;
6127;SDS011;7073;42.672;23.256;2022-07-29T04:48:58;24.50;;;15.80;;
6127;SDS011;7073;42.672;23.256;2022-07-29T04:51:26;19.50;;;15.17;;
6127;SDS011;7073;42.672;23.256;2022-07-29T04:53:53;23.73;;;16.33;;
6127;SDS011;7073;42.672;23.256;2022-07-29T04:56:19;22.00;;;16.27;;
6127;SDS011;7073;42.672;23.256;2022-07-29T04:58:46;19.37;;;15.70;;
6127;SDS011;7073;42.672;23.256;2022-07-29T05:01:13;24.57;;;16.13;;
6127;SDS011;7073;42.672;23.256;2022-07-29T05:03:40;20.50;;;15.77;;
6127;SDS011;7073;42.672;23.256;2022-07-29T05:06:07;18.70;;;14.30;;
6127;SDS011;7073;42.672;23.256;2022-07-29T05:08:35;24.00;;;13.60;;
6127;SDS011;7073;42.672;23.256;2022-07-29T05:11:02;18.47;;;13.80;;
6127;SDS011;7073;42.672;23.256;2022-07-29T05:13:29;17.50;;;14.07;;
6127;SDS011;7073;42.672;23.256;2022-07-29T05:15:56;19.07;;;14.40;;
6127;SDS011;7073;42.672;23.256;2022-07-29T05:18:23;20.53;;;14.00;;
6127;SDS011;7073;42.672;23.256;2022-07-29T05:20:50;24.13;;;15.57;;
6127;SDS011;7073;42.672;23.256;2022-07-29T05:23:17;19.37;;;15.33;;
6127;SDS011;7073;42.672;23.256;2022-07-29T05:25:45;17.00;;;14.10;;
6127;SDS011;7073;42.672;23.256;2022-07-29T05:28:12;15.50;;;13.50;;
6127;SDS011;7073;42.672;23.256;2022-07-29T05:30:39;17.73;;;13.33;;
6127;SDS011;7073;42.672;23.256;2022-07-29T05:33:07;16.50;;;14.03;;
6127;SDS011;7073;42.672;23.256;2022-07-29T05:35:34;15.23;;;12.80;;
6127;SDS011;7073;42.672;23.256;2022-07-29T05:38:02;16.33;;;12.53;;
6127;SDS011;7073;42.672;23.256;2022-07-29T05:40:29;17.03;;;12.10;;
6127;SDS011;7073;42.672;23.256;2022-07-29T05:42:58;14.73;;;12.70;;
6127;SDS011;7073;42.672;23.256;2022-07-29T05:45:25;16.57;;;12.33;;
6127;SDS011;7073;42.672;23.256;2022-07-29T05:47:52;19.00;;;12.97;;
6127;SDS011;7073;42.672;23.256;2022-07-29T05:50:19;14.60;;;11.07;;
6127;SDS011;7073;42.672;23.256;2022-07-29T05:52:46;15.00;;;11.73;;
6127;SDS011;7073;42.672;23.256;2022-07-29T05:55:12;17.17;;;12.93;;
6127;SDS011;7073;42.672;23.256;2022-07-29T05:57:39;15.27;;;12.27;;
6127;SDS011;7073;42.672;23.256;2022-07-29T06:00:10;13.23;;;11.83;;
6127;SDS011;7073;42.672;23.256;2022-07-29T06:02:37;17.00;;;13.13;;
6127;SDS011;7073;42.672;23.256;2022-07-29T06:05:05;24.60;;;12.90;;
6127;SDS011;7073;42.672;23.256;2022-07-29T06:07:32;12.30;;;10.50;;
6127;SDS011;7073;42.672;23.256;2022-07-29T06:09:59;16.97;;;13.73;;
6127;SDS011;7073;42.672;23.256;2022-07-29T06:12:26;15.33;;;13.70;;
6127;SDS011;7073;42.672;23.256;2022-07-29T06:14:52;19.30;;;12.80;;
6127;SDS011;7073;42.672;23.256;2022-07-29T06:17:20;16.83;;;12.20;;
6127;SDS011;7073;42.672;23.256;2022-07-29T06:19:47;21.70;;;14.43;;
6127;SDS011;7073;42.672;23.256;2022-07-29T06:22:14;23.03;;;16.37;;
6127;SDS011;7073;42.672;23.256;2022-07-29T06:24:42;15.90;;;14.20;;
6127;SDS011;7073;42.672;23.256;2022-07-29T06:27:10;19.37;;;15.80;;
6127;SDS011;7073;42.672;23.256;2022-07-29T06:29:37;24.60;;;16.10;;
6127;SDS011;7073;42.672;23.256;2022-07-29T06:32:04;21.00;;;16.13;;
6127;SDS011;7073;42.672;23.256;2022-07-29T06:34:33;19.90;;;15.90;;
6127;SDS011;7073;42.672;23.256;2022-07-29T06:37:00;19.13;;;14.60;;
6127;SDS011;7073;42.672;23.256;2022-07-29T06:39:27;22.23;;;16.70;;
6127;SDS011;7073;42.672;23.256;2022-07-29T06:41:54;23.13;;;14.43;;
6127;SDS011;7073;42.672;23.256;2022-07-29T06:44:21;20.20;;;14.97;;
6127;SDS011;7073;42.672;23.256;2022-07-29T06:46:48;26.43;;;20.70;;
6127;SDS011;7073;42.672;23.256;2022-07-29T06:49:16;15.93;;;13.10;;
6127;SDS011;7073;42.672;23.256;2022-07-29T06:51:44;10.67;;;9.20;;
6127;SDS011;7073;42.672;23.256;2022-07-29T06:54:11;17.20;;;8.90;;
6127;SDS011;7073;42.672;23.256;2022-07-29T06:56:38;10.00;;;8.57;;
6127;SDS011;7073;42.672;23.256;2022-07-29T06:59:07;10.63;;;8.10;;
6127;SDS011;7073;42.672;23.256;2022-07-29T07:01:35;13.73;;;9.17;;
6127;SDS011;7073;42.672;23.256;2022-07-29T07:04:02;10.37;;;8.60;;
6127;SDS011;7073;42.672;23.256;2022-07-29T07:06:29;8.87;;;7.63;;
6127;SDS011;7073;42.672;23.256;2022-07-29T07:08:58;13.63;;;9.40;;
6127;SDS011;7073;42.672;23.256;2022-07-29T07:11:24;8.70;;;7.80;;
6127;SDS011;7073;42.672;23.256;2022-07-29T07:13:51;8.70;;;7.90;;
6127;SDS011;7073;42.672;23.256;2022-07-29T07:16:18;11.30;;;8.17;;
6127;SDS011;7073;42.672;23.256;2022-07-29T07:18:45;13.57;;;8.23;;
6127;SDS011;7073;42.672;23.256;2022-07-29T07:21:12;9.33;;;7.53;;
6127;SDS011;7073;42.672;23.256;2022-07-29T07:23:39;11.60;;;8.30;;
6127;SDS011;7073;42.672;23.256;2022-07-29T07:26:07;10.40;;;8.97;;
6127;SDS011;7073;42.672;23.256;2022-07-29T07:28:34;9.87;;;8.20;;
6127;SDS011;7073;42.672;23.256;2022-07-29T07:31:01;11.10;;;8.33;;
6127;SDS011;7073;42.672;23.256;2022-07-29T07:33:28;10.03;;;7.97;;
6127;SDS011;7073;42.672;23.256;2022-07-29T07:35:55;9.13;;;8.07;;
6127;SDS011;7073;42.672;23.256;2022-07-29T07:38:22;10.30;;;7.50;;
6127;SDS011;7073;42.672;23.256;2022-07-29T07:40:49;9.50;;;7.77;;
6127;SDS011;7073;42.672;23.256;2022-07-29T07:43:17;8.60;;;7.70;;
6127;SDS011;7073;42.672;23.256;2022-07-29T07:45:44;14.27;;;9.67;;
6127;SDS011;7073;42.672;23.256;2022-07-29T07:48:11;8.57;;;7.13;;
6127;SDS011;7073;42.672;23.256;2022-07-29T07:50:38;8.67;;;7.77;;
6127;SDS011;7073;42.672;23.256;2022-07-29T07:53:05;9.17;;;8.27;;
6127;SDS011;7073;42.672;23.256;2022-07-29T07:55:32;11.53;;;8.10;;
6127;SDS011;7073;42.672;23.256;2022-07-29T07:57:59;13.03;;;7.43;;
6127;SDS011;7073;42.672;23.256;2022-07-29T08:00:27;8.97;;;8.17;;
6127;SDS011;7073;42.672;23.256;2022-07-29T08:02:54;9.97;;;8.53;;
6127;SDS011;7073;42.672;23.256;2022-07-29T08:05:21;8.20;;;7.47;;
6127;SDS011;7073;42.672;23.256;2022-07-29T08:07:48;8.93;;;8.13;;
6127;SDS011;7073;42.672;23.256;2022-07-29T08:10:15;12.17;;;7.73;;
6127;SDS011;7073;42.672;23.256;2022-07-29T08:13:04;8.47;;;7.50;;
6127;SDS011;7073;42.672;23.256;2022-07-29T08:15:33;10.17;;;6.43;;
6127;SDS011;7073;42.672;23.256;2022-07-29T08:18:00;7.23;;;6.50;;
6127;SDS011;7073;42.672;23.256;2022-07-29T08:20:27;8.50;;;7.60;;
6127;SDS011;7073;42.672;23.256;2022-07-29T08:22:55;11.57;;;6.63;;
6127;SDS011;7073;42.672;23.256;2022-07-29T08:25:22;7.47;;;6.60;;
6127;SDS011;7073;42.672;23.256;2022-07-29T08:27:49;8.37;;;6.23;;
6127;SDS011;7073;42.672;23.256;2022-07-29T08:30:16;7.50;;;6.87;;
6127;SDS011;7073;42.672;23.256;2022-07-29T08:32:44;9.97;;;8.30;;
6127;SDS011;7073;42.672;23.256;2022-07-29T08:35:11;7.67;;;6.87;;
6127;SDS011;7073;42.672;23.256;2022-07-29T08:37:40;7.50;;;6.80;;
6127;SDS011;7073;42.672;23.256;2022-07-29T08:40:07;8.47;;;6.20;;
6127;SDS011;7073;42.672;23.256;2022-07-29T08:42:35;7.10;;;6.50;;
6127;SDS011;7073;42.672;23.256;2022-07-29T08:45:01;7.23;;;6.53;;
6127;SDS011;7073;42.672;23.256;2022-07-29T08:47:28;6.57;;;6.07;;
6127;SDS011;7073;42.672;23.256;2022-07-29T08:49:57;6.83;;;6.23;;
6127;SDS011;7073;42.672;23.256;2022-07-29T08:52:25;9.00;;;7.00;;
6127;SDS011;7073;42.672;23.256;2022-07-29T08:54:52;7.23;;;6.53;;
6127;SDS011;7073;42.672;23.256;2022-07-29T08:57:19;7.33;;;6.40;;
6127;SDS011;7073;42.672;23.256;2022-07-29T08:59:47;7.70;;;6.33;;
6127;SDS011;7073;42.672;23.256;2022-07-29T09:02:18;11.87;;;7.00;;
6127;SDS011;7073;42.672;23.256;2022-07-29T09:04:46;8.90;;;8.07;;
6127;SDS011;7073;42.672;23.256;2022-07-29T09:07:16;7.77;;;7.10;;
6127;SDS011;7073;42.672;23.256;2022-07-29T09:09:44;10.00;;;9.07;;
6127;SDS011;7073;42.672;23.256;2022-07-29T09:12:11;11.77;;;9.03;;
6127;SDS011;7073;42.672;23.256;2022-07-29T09:14:39;6.43;;;5.90;;
6127;SDS011;7073;42.672;23.256;2022-07-29T09:17:06;22.87;;;17.13;;
6127;SDS011;7073;42.672;23.256;2022-07-29T09:19:34;10.60;;;9.33;;
6127;SDS011;7073;42.672;23.256;2022-07-29T09:22:03;9.67;;;8.80;;
6127;SDS011;7073;42.672;23.256;2022-07-29T09:24:39;7.40;;;6.70;;
6127;SDS011;7073;42.672;23.256;2022-07-29T09:27:08;9.47;;;7.83;;
6127;SDS011;7073;42.672;23.256;2022-07-29T09:29:36;8.43;;;7.63;;
6127;SDS011;7073;42.672;23.256;2022-07-29T09:32:05;7.20;;;6.60;;
6127;SDS011;7073;42.672;23.256;2022-07-29T09:34:34;21.43;;;14.20;;
6127;SDS011;7073;42.672;23.256;2022-07-29T09:37:01;8.30;;;7.50;;
6127;SDS011;7073;42.672;23.256;2022-07-29T09:39:29;18.53;;;11.80;;
6127;SDS011;7073;42.672;23.256;2022-07-29T09:41:59;9.43;;;7.50;;
6127;SDS011;7073;42.672;23.256;2022-07-29T09:44:27;9.40;;;6.80;;
6127;SDS011;7073;42.672;23.256;2022-07-29T09:47:07;9.93;;;8.03;;
6127;SDS011;7073;42.672;23.256;2022-07-29T09:49:34;7.83;;;6.67;;
6127;SDS011;7073;42.672;23.256;2022-07-29T09:52:05;14.73;;;13.17;;
6127;SDS011;7073;42.672;23.256;2022-07-29T09:54:34;24.17;;;21.10;;
6127;SDS011;7073;42.672;23.256;2022-07-29T09:57:05;25.77;;;22.93;;
6127;SDS011;7073;42.672;23.256;2022-07-29T09:59:34;13.37;;;11.93;;
6127;SDS011;7073;42.672;23.256;2022-07-29T10:02:02;6.80;;;6.10;;
6127;SDS011;7073;42.672;23.256;2022-07-29T10:04:39;7.70;;;6.60;;
6127;SDS011;7073;42.672;23.256;2022-07-29T10:07:06;7.87;;;6.50;;
6127;SDS011;7073;42.672;23.256;2022-07-29T10:09:33;8.93;;;7.03;;
6127;SDS011;7073;42.672;23.256;2022-07-29T10:12:09;13.43;;;8.80;;
6127;SDS011;7073;42.672;23.256;2022-07-29T10:14:39;8.10;;;7.50;;
6127;SDS011;7073;42.672;23.256;2022-07-29T10:17:06;7.37;;;6.57;;
6127;SDS011;7073;42.672;23.256;2022-07-29T10:19:35;9.33;;;6.90;;
6127;SDS011;7073;42.672;23.256;2022-07-29T10:22:03;8.40;;;7.60;;
6127;SDS011;7073;42.672;23.256;2022-07-29T10:24:32;7.93;;;7.10;;
6127;SDS011;7073;42.672;23.256;2022-07-29T10:27:01;9.57;;;7.20;;
6127;SDS011;7073;42.672;23.256;2022-07-29T10:29:30;8.50;;;7.70;;
6127;SDS011;7073;42.672;23.256;2022-07-29T10:35:15;7.90;;;7.20;;
6127;SDS011;7073;42.672;23.256;2022-07-29T10:37:59;8.03;;;7.23;;
6127;SDS011;7073;42.672;23.256;2022-07-29T10:40:39;8.80;;;8.00;;
6127;SDS011;7073;42.672;23.256;2022-07-29T10:43:32;8.03;;;7.43;;
6127;SDS011;7073;42.672;23.256;2022-07-29T10:46:04;8.50;;;7.80;;
6127;SDS011;7073;42.672;23.256;2022-07-29T10:48:32;9.47;;;7.83;;
6127;SDS011;7073;42.672;23.256;2022-07-29T10:51:00;8.17;;;7.47;;
6127;SDS011;7073;42.672;23.256;2022-07-29T10:56:24;9.33;;;7.33;;
6127;SDS011;7073;42.672;23.256;2022-07-29T11:01:53;8.87;;;8.17;;
6127;SDS011;7073;42.672;23.256;2022-07-29T11:07:28;9.70;;;7.90;;
6127;SDS011;7073;42.672;23.256;2022-07-29T11:12:48;7.97;;;7.37;;
6127;SDS011;7073;42.672;23.256;2022-07-29T11:15:16;9.30;;;8.50;;
6127;SDS011;7073;42.672;23.256;2022-07-29T11:18:06;12.20;;;8.97;;
6127;SDS011;7073;42.672;23.256;2022-07-29T11:20:35;8.80;;;7.90;;
6127;SDS011;7073;42.672;23.256;2022-07-29T11:23:20;8.73;;;8.00;;
6127;SDS011;7073;42.672;23.256;2022-07-29T11:28:51;8.97;;;8.27;;
6127;SDS011;7073;42.672;23.256;2022-07-29T11:31:32;10.10;;;9.00;;
6127;SDS011;7073;42.672;23.256;2022-07-29T11:37:17;11.73;;;9.30;;
6127;SDS011;7073;42.672;23.256;2022-07-29T11:42:38;11.70;;;8.37;;
6127;SDS011;7073;42.672;23.256;2022-07-29T11:45:10;9.60;;;8.57;;
6127;SDS011;7073;42.672;23.256;2022-07-29T11:47:39;10.10;;;9.17;;
6127;SDS011;7073;42.672;23.256;2022-07-29T11:50:10;9.47;;;8.67;;
6127;SDS011;7073;42.672;23.256;2022-07-29T11:52:39;9.37;;;8.67;;
6127;SDS011;7073;42.672;23.256;2022-07-29T11:55:11;8.50;;;7.73;;
6127;SDS011;7073;42.672;23.256;2022-07-29T11:57:46;8.90;;;8.20;;
6127;SDS011;7073;42.672;23.256;2022-07-29T12:00:20;8.47;;;7.67;;
6127;SDS011;7073;42.672;23.256;2022-07-29T12:02:49;9.30;;;8.40;;
6127;SDS011;7073;42.672;23.256;2022-07-29T12:05:18;8.63;;;7.83;;
6127;SDS011;7073;42.672;23.256;2022-07-29T12:07:45;8.57;;;7.73;;
6127;SDS011;7073;42.672;23.256;2022-07-29T12:10:13;8.50;;;7.80;;
6127;SDS011;7073;42.672;23.256;2022-07-29T12:12:41;9.73;;;7.83;;
6127;SDS011;7073;42.672;23.256;2022-07-29T12:15:12;9.13;;;8.30;;
6127;SDS011;7073;42.672;23.256;2022-07-29T12:17:40;8.63;;;7.93;;
6127;SDS011;7073;42.672;23.256;2022-07-29T12:20:07;9.20;;;8.47;;
6127;SDS011;7073;42.672;23.256;2022-07-29T12:22:37;8.60;;;8.00;;
6127;SDS011;7073;42.672;23.256;2022-07-29T12:25:06;8.50;;;7.90;;
6127;SDS011;7073;42.672;23.256;2022-07-29T12:27:34;11.17;;;8.90;;
6127;SDS011;7073;42.672;23.256;2022-07-29T12:30:04;8.73;;;8.00;;
6127;SDS011;7073;42.672;23.256;2022-07-29T12:32:33;11.30;;;10.17;;
6127;SDS011;7073;42.672;23.256;2022-07-29T12:35:02;15.87;;;8.93;;
6127;SDS011;7073;42.672;23.256;2022-07-29T12:37:31;11.50;;;10.40;;
6127;SDS011;7073;42.672;23.256;2022-07-29T12:40:01;9.20;;;8.40;;
6127;SDS011;7073;42.672;23.256;2022-07-29T12:42:29;9.10;;;8.20;;
6127;SDS011;7073;42.672;23.256;2022-07-29T12:44:56;9.33;;;8.43;;
6127;SDS011;7073;42.672;23.256;2022-07-29T12:47:23;8.67;;;8.00;;
6127;SDS011;7073;42.672;23.256;2022-07-29T12:49:51;9.00;;;8.30;;
6127;SDS011;7073;42.672;23.256;2022-07-29T12:52:35;10.10;;;8.77;;
6127;SDS011;7073;42.672;23.256;2022-07-29T12:55:04;8.37;;;7.77;;
6127;SDS011;7073;42.672;23.256;2022-07-29T12:57:31;8.67;;;7.90;;
6127;SDS011;7073;42.672;23.256;2022-07-29T13:00:03;9.10;;;8.30;;
6127;SDS011;7073;42.672;23.256;2022-07-29T13:02:35;8.83;;;8.13;;
6127;SDS011;7073;42.672;23.256;2022-07-29T13:05:04;8.97;;;8.27;;
6127;SDS011;7073;42.672;23.256;2022-07-29T13:07:33;8.47;;;7.67;;
6127;SDS011;7073;42.672;23.256;2022-07-29T13:10:13;8.30;;;7.60;;
6127;SDS011;7073;42.672;23.256;2022-07-29T13:15:31;9.80;;;8.43;;
6127;SDS011;7073;42.672;23.256;2022-07-29T13:17:59;9.20;;;8.50;;
6127;SDS011;7073;42.672;23.256;2022-07-29T13:20:27;8.37;;;7.63;;
6127;SDS011;7073;42.672;23.256;2022-07-29T13:22:55;8.30;;;7.60;;
6127;SDS011;7073;42.672;23.256;2022-07-29T13:25:25;7.97;;;7.27;;
6127;SDS011;7073;42.672;23.256;2022-07-29T13:27:53;8.73;;;8.03;;
6127;SDS011;7073;42.672;23.256;2022-07-29T13:30:20;8.90;;;8.00;;
6127;SDS011;7073;42.672;23.256;2022-07-29T13:32:49;8.57;;;7.83;;
6127;SDS011;7073;42.672;23.256;2022-07-29T13:35:16;10.37;;;9.47;;
6127;SDS011;7073;42.672;23.256;2022-07-29T13:37:44;9.90;;;8.10;;
6127;SDS011;7073;42.672;23.256;2022-07-29T13:40:11;10.53;;;7.80;;
6127;SDS011;7073;42.672;23.256;2022-07-29T13:42:41;7.63;;;7.03;;
6127;SDS011;7073;42.672;23.256;2022-07-29T13:45:08;11.40;;;8.70;;
6127;SDS011;7073;42.672;23.256;2022-07-29T13:47:36;8.00;;;7.37;;
6127;SDS011;7073;42.672;23.256;2022-07-29T13:50:04;8.93;;;8.13;;
6127;SDS011;7073;42.672;23.256;2022-07-29T13:52:34;8.53;;;7.80;;
6127;SDS011;7073;42.672;23.256;2022-07-29T13:55:02;9.27;;;8.47;;
6127;SDS011;7073;42.672;23.256;2022-07-29T13:57:30;9.20;;;8.50;;
6127;SDS011;7073;42.672;23.256;2022-07-29T13:59:59;32.93;;;12.10;;
6127;SDS011;7073;42.672;23.256;2022-07-29T14:02:25;8.97;;;8.07;;
6127;SDS011;7073;42.672;23.256;2022-07-29T14:04:52;9.30;;;8.40;;
6127;SDS011;7073;42.672;23.256;2022-07-29T14:07:19;9.37;;;8.57;;
6127;SDS011;7073;42.672;23.256;2022-07-29T14:09:46;8.40;;;7.70;;
6127;SDS011;7073;42.672;23.256;2022-07-29T14:12:13;8.87;;;8.10;;
6127;SDS011;7073;42.672;23.256;2022-07-29T14:14:40;8.97;;;8.27;;
6127;SDS011;7073;42.672;23.256;2022-07-29T14:17:08;9.10;;;8.43;;
6127;SDS011;7073;42.672;23.256;2022-07-29T14:19:35;8.63;;;7.83;;
6127;SDS011;7073;42.672;23.256;2022-07-29T14:22:03;10.60;;;7.80;;
6127;SDS011;7073;42.672;23.256;2022-07-29T14:24:31;8.40;;;7.40;;
6127;SDS011;7073;42.672;23.256;2022-07-29T14:26:58;8.47;;;7.67;;
6127;SDS011;7073;42.672;23.256;2022-07-29T14:29:25;8.53;;;7.93;;
6127;SDS011;7073;42.672;23.256;2022-07-29T14:31:52;8.73;;;7.90;;
6127;SDS011;7073;42.672;23.256;2022-07-29T14:34:20;8.83;;;8.07;;
6127;SDS011;7073;42.672;23.256;2022-07-29T14:36:47;8.43;;;7.73;;
6127;SDS011;7073;42.672;23.256;2022-07-29T14:39:14;8.37;;;7.67;;
6127;SDS011;7073;42.672;23.256;2022-07-29T14:41:42;9.93;;;8.60;;
6127;SDS011;7073;42.672;23.256;2022-07-29T14:44:08;8.43;;;7.70;;
6127;SDS011;7073;42.672;23.256;2022-07-29T14:46:35;9.40;;;8.57;;
6127;SDS011;7073;42.672;23.256;2022-07-29T14:49:02;15.13;;;13.90;;
6127;SDS011;7073;42.672;23.256;2022-07-29T14:51:30;10.30;;;9.30;;
6127;SDS011;7073;42.672;23.256;2022-07-29T14:53:57;9.17;;;8.17;;
6127;SDS011;7073;42.672;23.256;2022-07-29T14:56:24;9.50;;;8.70;;
6127;SDS011;7073;42.672;23.256;2022-07-29T14:58:52;9.37;;;8.63;;
6127;SDS011;7073;42.672;23.256;2022-07-29T15:01:18;9.90;;;9.07;;
6127;SDS011;7073;42.672;23.256;2022-07-29T15:03:45;9.60;;;8.70;;
6127;SDS011;7073;42.672;23.256;2022-07-29T15:06:12;9.50;;;8.37;;
6127;SDS011;7073;42.672;23.256;2022-07-29T15:08:40;8.30;;;7.60;;
6127;SDS011;7073;42.672;23.256;2022-07-29T15:11:07;8.80;;;8.03;;
6127;SDS011;7073;42.672;23.256;2022-07-29T15:13:33;9.20;;;8.47;;
6127;SDS011;7073;42.672;23.256;2022-07-29T15:16:23;9.20;;;8.50;;
6127;SDS011;7073;42.672;23.256;2022-07-29T15:18:50;10.60;;;9.53;;
6127;SDS011;7073;42.672;23.256;2022-07-29T15:21:17;9.50;;;8.70;;
6127;SDS011;7073;42.672;23.256;2022-07-29T15:23:43;9.80;;;8.93;;